sensor_id;sensor_type;location;lat;lon;timestamp;pressure;altitude;pressure_sealevel;temperature
73734;BMP280;62039;50.000;9.064;2023-07-22T00:02:21;100219.00;;;17.52
73734;BMP280;62039;50.000;9.064;2023-07-22T00:04:48;100221.84;;;17.50
73734;BMP280;62039;50.000;9.064;2023-07-22T00:07:18;100227.31;;;17.49
73734;BMP280;62039;50.000;9.064;2023-07-22T00:09:45;100233.00;;;17.46
73734;BMP280;62039;50.000;9.064;2023-07-22T00:12:12;100234.84;;;17.45
73734;BMP280;62039;50.000;9.064;2023-07-22T00:14:40;100235.25;;;17.42
73734;BMP280;62039;50.000;9.064;2023-07-22T00:17:08;100230.19;;;17.41
73734;BMP280;62039;50.000;9.064;2023-07-22T00:19:35;100230.38;;;17.39
73734;BMP280;62039;50.000;9.064;2023-07-22T00:22:02;100232.44;;;17.37
73734;BMP280;62039;50.000;9.064;2023-07-22T00:24:32;100228.97;;;17.37
73734;BMP280;62039;50.000;9.064;2023-07-22T00:26:59;100241.75;;;17.33
73734;BMP280;62039;50.000;9.064;2023-07-22T00:29:26;100239.13;;;17.33
73734;BMP280;62039;50.000;9.064;2023-07-22T00:31:53;100233.25;;;17.31
73734;BMP280;62039;50.000;9.064;2023-07-22T00:34:20;100221.88;;;17.31
73734;BMP280;62039;50.000;9.064;2023-07-22T00:36:47;100227.38;;;17.29
73734;BMP280;62039;50.000;9.064;2023-07-22T00:39:14;100229.19;;;17.29
73734;BMP280;62039;50.000;9.064;2023-07-22T00:41:43;100232.03;;;17.27
73734;BMP280;62039;50.000;9.064;2023-07-22T00:44:11;100227.78;;;17.26
73734;BMP280;62039;50.000;9.064;2023-07-22T00:46:38;100232.47;;;17.24
73734;BMP280;62039;50.000;9.064;2023-07-22T00:49:06;100225.56;;;17.23
73734;BMP280;62039;50.000;9.064;2023-07-22T00:51:33;100232.66;;;17.22
73734;BMP280;62039;50.000;9.064;2023-07-22T00:54:00;100227.59;;;17.21
73734;BMP280;62039;50.000;9.064;2023-07-22T00:56:27;100230.41;;;17.19
73734;BMP280;62039;50.000;9.064;2023-07-22T00:58:58;100222.72;;;17.18
73734;BMP280;62039;50.000;9.064;2023-07-22T01:01:25;100231.66;;;17.17
73734;BMP280;62039;50.000;9.064;2023-07-22T01:03:52;100221.50;;;17.14
73734;BMP280;62039;50.000;9.064;2023-07-22T01:06:19;100218.28;;;17.12
73734;BMP280;62039;50.000;9.064;2023-07-22T01:08:48;100224.56;;;17.11
73734;BMP280;62039;50.000;9.064;2023-07-22T01:11:15;100222.94;;;17.10
73734;BMP280;62039;50.000;9.064;2023-07-22T01:13:42;100217.06;;;17.08
73734;BMP280;62039;50.000;9.064;2023-07-22T01:16:12;100222.31;;;17.08
73734;BMP280;62039;50.000;9.064;2023-07-22T01:18:39;100221.94;;;17.04
73734;BMP280;62039;50.000;9.064;2023-07-22T01:21:06;100223.97;;;17.02
73734;BMP280;62039;50.000;9.064;2023-07-22T01:23:38;100223.16;;;17.02
73734;BMP280;62039;50.000;9.064;2023-07-22T01:26:06;100228.81;;;16.99
73734;BMP280;62039;50.000;9.064;2023-07-22T01:28:35;100227.22;;;16.98
73734;BMP280;62039;50.000;9.064;2023-07-22T01:31:02;100234.53;;;16.96
73734;BMP280;62039;50.000;9.064;2023-07-22T01:33:29;100229.63;;;16.93
73734;BMP280;62039;50.000;9.064;2023-07-22T01:35:55;100234.50;;;16.89
73734;BMP280;62039;50.000;9.064;2023-07-22T01:38:23;100230.44;;;16.86
73734;BMP280;62039;50.000;9.064;2023-07-22T01:40:52;100236.13;;;16.83
73734;BMP280;62039;50.000;9.064;2023-07-22T01:43:19;100230.44;;;16.80
73734;BMP280;62039;50.000;9.064;2023-07-22T01:45:46;100236.13;;;16.77
73734;BMP280;62039;50.000;9.064;2023-07-22T01:48:13;100228.59;;;16.74
73734;BMP280;62039;50.000;9.064;2023-07-22T01:50:40;100230.84;;;16.70
73734;BMP280;62039;50.000;9.064;2023-07-22T01:53:07;100223.34;;;16.67
73734;BMP280;62039;50.000;9.064;2023-07-22T01:55:34;100234.06;;;16.66
73734;BMP280;62039;50.000;9.064;2023-07-22T01:58:03;100232.66;;;16.63
73734;BMP280;62039;50.000;9.064;2023-07-22T02:00:30;100228.78;;;16.59
73734;BMP280;62039;50.000;9.064;2023-07-22T02:02:57;100226.56;;;16.56
73734;BMP280;62039;50.000;9.064;2023-07-22T02:05:25;100228.59;;;16.54
73734;BMP280;62039;50.000;9.064;2023-07-22T02:07:52;100233.47;;;16.51
73734;BMP280;62039;50.000;9.064;2023-07-22T02:10:19;100229.59;;;16.46
73734;BMP280;62039;50.000;9.064;2023-07-22T02:12:46;100230.03;;;16.43
73734;BMP280;62039;50.000;9.064;2023-07-22T02:15:15;100234.84;;;16.40
73734;BMP280;62039;50.000;9.064;2023-07-22T02:17:42;100231.81;;;16.36
73734;BMP280;62039;50.000;9.064;2023-07-22T02:20:09;100234.03;;;16.33
73734;BMP280;62039;50.000;9.064;2023-07-22T02:22:36;100237.09;;;16.30
73734;BMP280;62039;50.000;9.064;2023-07-22T02:25:04;100231.19;;;16.28
73734;BMP280;62039;50.000;9.064;2023-07-22T02:27:32;100235.25;;;16.24
73734;BMP280;62039;50.000;9.064;2023-07-22T02:29:59;100236.44;;;16.21
73734;BMP280;62039;50.000;9.064;2023-07-22T02:32:28;100240.25;;;16.19
73734;BMP280;62039;50.000;9.064;2023-07-22T02:34:55;100230.31;;;16.14
73734;BMP280;62039;50.000;9.064;2023-07-22T02:37:22;100226.25;;;16.12
73734;BMP280;62039;50.000;9.064;2023-07-22T02:39:49;100228.28;;;16.09
73734;BMP280;62039;50.000;9.064;2023-07-22T02:42:16;100224.41;;;16.05
73734;BMP280;62039;50.000;9.064;2023-07-22T02:44:43;100229.09;;;16.03
73734;BMP280;62039;50.000;9.064;2023-07-22T02:47:10;100229.47;;;16.00
73734;BMP280;62039;50.000;9.064;2023-07-22T02:49:40;100235.94;;;15.98
73734;BMP280;62039;50.000;9.064;2023-07-22T02:52:07;100230.88;;;15.96
73734;BMP280;62039;50.000;9.064;2023-07-22T02:54:40;100234.72;;;15.94
73734;BMP280;62039;50.000;9.064;2023-07-22T02:57:07;100230.84;;;15.90
73734;BMP280;62039;50.000;9.064;2023-07-22T02:59:34;100233.69;;;15.88
73734;BMP280;62039;50.000;9.064;2023-07-22T03:02:01;100226.16;;;15.85
73734;BMP280;62039;50.000;9.064;2023-07-22T03:04:28;100238.75;;;15.83
73734;BMP280;62039;50.000;9.064;2023-07-22T03:06:57;100233.84;;;15.80
73734;BMP280;62039;50.000;9.064;2023-07-22T03:09:24;100239.31;;;15.79
73734;BMP280;62039;50.000;9.064;2023-07-22T03:11:51;100235.25;;;15.76
73734;BMP280;62039;50.000;9.064;2023-07-22T03:14:18;100227.75;;;15.73
73734;BMP280;62039;50.000;9.064;2023-07-22T03:16:45;100237.66;;;15.71
73734;BMP280;62039;50.000;9.064;2023-07-22T03:19:12;100242.31;;;15.69
73734;BMP280;62039;50.000;9.064;2023-07-22T03:21:39;100233.78;;;15.67
73734;BMP280;62039;50.000;9.064;2023-07-22T03:24:09;100246.34;;;15.65
73734;BMP280;62039;50.000;9.064;2023-07-22T03:26:36;100244.09;;;15.62
73734;BMP280;62039;50.000;9.064;2023-07-22T03:29:03;100242.47;;;15.61
73734;BMP280;62039;50.000;9.064;2023-07-22T03:31:30;100245.50;;;15.58
73734;BMP280;62039;50.000;9.064;2023-07-22T03:33:57;100244.88;;;15.56
73734;BMP280;62039;50.000;9.064;2023-07-22T03:36:24;100249.53;;;15.54
73734;BMP280;62039;50.000;9.064;2023-07-22T03:38:51;100256.19;;;15.50
73734;BMP280;62039;50.000;9.064;2023-07-22T03:41:21;100257.19;;;15.49
73734;BMP280;62039;50.000;9.064;2023-07-22T03:43:48;100252.28;;;15.46
73734;BMP280;62039;50.000;9.064;2023-07-22T03:46:14;100262.19;;;15.44
73734;BMP280;62039;50.000;9.064;2023-07-22T03:48:41;100264.41;;;15.40
73734;BMP280;62039;50.000;9.064;2023-07-22T03:51:08;100262.75;;;15.39
73734;BMP280;62039;50.000;9.064;2023-07-22T03:53:46;100258.09;;;15.35
73734;BMP280;62039;50.000;9.064;2023-07-22T03:56:13;100250.38;;;15.33
73734;BMP280;62039;50.000;9.064;2023-07-22T03:58:43;100254.84;;;15.33
73734;BMP280;62039;50.000;9.064;2023-07-22T04:01:10;100248.94;;;15.30
73734;BMP280;62039;50.000;9.064;2023-07-22T04:03:37;100250.97;;;15.28
73734;BMP280;62039;50.000;9.064;2023-07-22T04:06:04;100249.34;;;15.27
73734;BMP280;62039;50.000;9.064;2023-07-22T04:08:31;100245.06;;;15.26
73734;BMP280;62039;50.000;9.064;2023-07-22T04:10:58;100240.81;;;15.25
73734;BMP280;62039;50.000;9.064;2023-07-22T04:13:26;100245.25;;;15.25
73734;BMP280;62039;50.000;9.064;2023-07-22T04:15:56;100250.53;;;15.25
73734;BMP280;62039;50.000;9.064;2023-07-22T04:18:23;100247.91;;;15.25
73734;BMP280;62039;50.000;9.064;2023-07-22T04:20:55;100253.97;;;15.25
73734;BMP280;62039;50.000;9.064;2023-07-22T04:23:22;100253.38;;;15.23
73734;BMP280;62039;50.000;9.064;2023-07-22T04:25:49;100250.75;;;15.23
73734;BMP280;62039;50.000;9.064;2023-07-22T04:28:16;100256.78;;;15.24
73734;BMP280;62039;50.000;9.064;2023-07-22T04:30:53;100248.91;;;15.24
73734;BMP280;62039;50.000;9.064;2023-07-22T04:33:23;100257.59;;;15.24
73734;BMP280;62039;50.000;9.064;2023-07-22T04:35:52;100254.97;;;15.24
73734;BMP280;62039;50.000;9.064;2023-07-22T04:38:19;100251.34;;;15.25
73734;BMP280;62039;50.000;9.064;2023-07-22T04:40:46;100247.72;;;15.26
73734;BMP280;62039;50.000;9.064;2023-07-22T04:43:13;100253.59;;;15.28
73734;BMP280;62039;50.000;9.064;2023-07-22T04:45:40;100256.84;;;15.30
73734;BMP280;62039;50.000;9.064;2023-07-22T04:48:07;100258.47;;;15.31
73734;BMP280;62039;50.000;9.064;2023-07-22T04:50:37;100260.72;;;15.35
73734;BMP280;62039;50.000;9.064;2023-07-22T04:53:04;100263.97;;;15.37
73734;BMP280;62039;50.000;9.064;2023-07-22T04:55:31;100258.31;;;15.40
73734;BMP280;62039;50.000;9.064;2023-07-22T04:57:58;100265.84;;;15.43
73734;BMP280;62039;50.000;9.064;2023-07-22T05:00:29;100265.28;;;15.47
73734;BMP280;62039;50.000;9.064;2023-07-22T05:02:56;100264.09;;;15.50
73734;BMP280;62039;50.000;9.064;2023-07-22T05:05:25;100258.41;;;15.53
73734;BMP280;62039;50.000;9.064;2023-07-22T05:07:55;100261.28;;;15.58
73734;BMP280;62039;50.000;9.064;2023-07-22T05:10:22;100260.91;;;15.61
73734;BMP280;62039;50.000;9.064;2023-07-22T05:12:49;100268.22;;;15.65
73734;BMP280;62039;50.000;9.064;2023-07-22T05:15:16;100270.28;;;15.70
73734;BMP280;62039;50.000;9.064;2023-07-22T05:17:43;100270.31;;;15.77
73734;BMP280;62039;50.000;9.064;2023-07-22T05:20:11;100271.34;;;15.82
73734;BMP280;62039;50.000;9.064;2023-07-22T05:22:38;100274.81;;;15.89
73734;BMP280;62039;50.000;9.064;2023-07-22T05:25:08;100270.59;;;15.95
73734;BMP280;62039;50.000;9.064;2023-07-22T05:27:36;100283.97;;;16.00
73734;BMP280;62039;50.000;9.064;2023-07-22T05:30:03;100277.09;;;16.05
73734;BMP280;62039;50.000;9.064;2023-07-22T05:32:36;100274.09;;;16.08
73734;BMP280;62039;50.000;9.064;2023-07-22T05:35:04;100274.50;;;16.12
73734;BMP280;62039;50.000;9.064;2023-07-22T05:37:31;100278.19;;;16.18
73734;BMP280;62039;50.000;9.064;2023-07-22T05:39:59;100279.44;;;16.22
73734;BMP280;62039;50.000;9.064;2023-07-22T05:42:28;100273.38;;;16.28
73734;BMP280;62039;50.000;9.064;2023-07-22T05:44:57;100277.22;;;16.32
73734;BMP280;62039;50.000;9.064;2023-07-22T05:47:24;100273.00;;;16.37
73734;BMP280;62039;50.000;9.064;2023-07-22T05:49:51;100276.47;;;16.44
73734;BMP280;62039;50.000;9.064;2023-07-22T05:52:18;100263.28;;;16.51
73734;BMP280;62039;50.000;9.064;2023-07-22T05:54:45;100270.97;;;16.59
73734;BMP280;62039;50.000;9.064;2023-07-22T05:57:12;100264.72;;;16.67
73734;BMP280;62039;50.000;9.064;2023-07-22T05:59:45;100270.41;;;16.77
73734;BMP280;62039;50.000;9.064;2023-07-22T06:02:23;100269.19;;;16.86
73734;BMP280;62039;50.000;9.064;2023-07-22T06:04:50;100268.41;;;16.99
73734;BMP280;62039;50.000;9.064;2023-07-22T06:07:17;100269.81;;;17.08
73734;BMP280;62039;50.000;9.064;2023-07-22T06:09:44;100275.53;;;17.18
73734;BMP280;62039;50.000;9.064;2023-07-22T06:12:11;100277.53;;;17.29
73734;BMP280;62039;50.000;9.064;2023-07-22T06:14:38;100273.22;;;17.41
73734;BMP280;62039;50.000;9.064;2023-07-22T06:17:08;100268.13;;;17.53
73734;BMP280;62039;50.000;9.064;2023-07-22T06:19:36;100265.69;;;17.64
73734;BMP280;62039;50.000;9.064;2023-07-22T06:22:03;100274.59;;;17.77
73734;BMP280;62039;50.000;9.064;2023-07-22T06:24:30;100287.97;;;17.88
73734;BMP280;62039;50.000;9.064;2023-07-22T06:26:58;100289.16;;;17.99
73734;BMP280;62039;50.000;9.064;2023-07-22T06:29:25;100291.13;;;18.10
73734;BMP280;62039;50.000;9.064;2023-07-22T06:31:52;100285.41;;;18.20
73734;BMP280;62039;50.000;9.064;2023-07-22T06:34:21;100284.16;;;18.29
73734;BMP280;62039;50.000;9.064;2023-07-22T06:36:48;100285.75;;;18.36
73734;BMP280;62039;50.000;9.064;2023-07-22T06:39:15;100291.59;;;18.45
73734;BMP280;62039;50.000;9.064;2023-07-22T06:41:42;100283.63;;;18.52
73734;BMP280;62039;50.000;9.064;2023-07-22T06:44:09;100289.06;;;18.57
73734;BMP280;62039;50.000;9.064;2023-07-22T06:46:36;100287.19;;;18.64
73734;BMP280;62039;50.000;9.064;2023-07-22T06:49:03;100283.69;;;18.70
73734;BMP280;62039;50.000;9.064;2023-07-22T06:51:33;100287.09;;;18.77
73734;BMP280;62039;50.000;9.064;2023-07-22T06:54:01;100289.91;;;18.82
73734;BMP280;62039;50.000;9.064;2023-07-22T06:56:28;100286.22;;;18.90
73734;BMP280;62039;50.000;9.064;2023-07-22T06:58:55;100290.22;;;18.99
73734;BMP280;62039;50.000;9.064;2023-07-22T07:01:22;100282.84;;;19.07
73734;BMP280;62039;50.000;9.064;2023-07-22T07:03:49;100280.50;;;19.17
73734;BMP280;62039;50.000;9.064;2023-07-22T07:06:16;100278.94;;;19.28
73734;BMP280;62039;50.000;9.064;2023-07-22T07:08:46;100278.03;;;19.41
73734;BMP280;62039;50.000;9.064;2023-07-22T07:11:13;100274.47;;;19.53
73734;BMP280;62039;50.000;9.064;2023-07-22T07:13:40;100277.19;;;19.65
73734;BMP280;62039;50.000;9.064;2023-07-22T07:16:20;100281.28;;;19.79
73734;BMP280;62039;50.000;9.064;2023-07-22T07:18:47;100282.97;;;19.92
73734;BMP280;62039;50.000;9.064;2023-07-22T07:21:14;100272.00;;;20.07
73734;BMP280;62039;50.000;9.064;2023-07-22T07:23:41;100269.41;;;20.18
73734;BMP280;62039;50.000;9.064;2023-07-22T07:26:11;100279.63;;;20.33
73734;BMP280;62039;50.000;9.064;2023-07-22T07:28:38;100275.16;;;20.45
73734;BMP280;62039;50.000;9.064;2023-07-22T07:31:05;100279.44;;;20.58
73734;BMP280;62039;50.000;9.064;2023-07-22T07:33:33;100272.09;;;20.71
73734;BMP280;62039;50.000;9.064;2023-07-22T07:36:00;100274.56;;;20.85
73734;BMP280;62039;50.000;9.064;2023-07-22T07:38:27;100266.59;;;20.96
73734;BMP280;62039;50.000;9.064;2023-07-22T07:40:56;100270.91;;;21.09
73734;BMP280;62039;50.000;9.064;2023-07-22T07:43:26;100274.13;;;21.23
73734;BMP280;62039;50.000;9.064;2023-07-22T07:46:11;100268.84;;;21.34
73734;BMP280;62039;50.000;9.064;2023-07-22T07:48:39;100272.28;;;21.46
73734;BMP280;62039;50.000;9.064;2023-07-22T07:51:06;100269.84;;;21.57
73734;BMP280;62039;50.000;9.064;2023-07-22T07:53:33;100275.13;;;21.68
73734;BMP280;62039;50.000;9.064;2023-07-22T07:56:00;100268.97;;;21.79
73734;BMP280;62039;50.000;9.064;2023-07-22T07:58:30;100267.34;;;21.90
73734;BMP280;62039;50.000;9.064;2023-07-22T08:00:57;100270.22;;;22.00
73734;BMP280;62039;50.000;9.064;2023-07-22T08:03:24;100272.00;;;22.11
73734;BMP280;62039;50.000;9.064;2023-07-22T08:05:51;100267.69;;;22.22
73734;BMP280;62039;50.000;9.064;2023-07-22T08:08:18;100262.31;;;22.33
73734;BMP280;62039;50.000;9.064;2023-07-22T08:10:45;100266.53;;;22.46
73734;BMP280;62039;50.000;9.064;2023-07-22T08:13:12;100266.00;;;22.61
73734;BMP280;62039;50.000;9.064;2023-07-22T08:15:43;100269.97;;;22.75
73734;BMP280;62039;50.000;9.064;2023-07-22T08:18:10;100259.78;;;22.89
73734;BMP280;62039;50.000;9.064;2023-07-22T08:20:37;100265.34;;;23.04
73734;BMP280;62039;50.000;9.064;2023-07-22T08:23:04;100258.66;;;23.18
73734;BMP280;62039;50.000;9.064;2023-07-22T08:25:31;100263.38;;;23.33
73734;BMP280;62039;50.000;9.064;2023-07-22T08:27:58;100258.19;;;23.43
73734;BMP280;62039;50.000;9.064;2023-07-22T08:30:25;100254.03;;;23.52
73734;BMP280;62039;50.000;9.064;2023-07-22T08:32:55;100252.09;;;23.64
73734;BMP280;62039;50.000;9.064;2023-07-22T08:35:22;100251.09;;;23.70
73734;BMP280;62039;50.000;9.064;2023-07-22T08:37:49;100245.06;;;23.80
73734;BMP280;62039;50.000;9.064;2023-07-22T08:40:16;100252.38;;;23.90
73734;BMP280;62039;50.000;9.064;2023-07-22T08:42:44;100253.03;;;24.02
73734;BMP280;62039;50.000;9.064;2023-07-22T08:45:13;100252.06;;;24.13
73734;BMP280;62039;50.000;9.064;2023-07-22T08:47:45;100250.59;;;24.22
73734;BMP280;62039;50.000;9.064;2023-07-22T08:50:20;100249.59;;;24.28
73734;BMP280;62039;50.000;9.064;2023-07-22T08:52:47;100246.91;;;24.28
73734;BMP280;62039;50.000;9.064;2023-07-22T08:55:14;100251.22;;;24.29
73734;BMP280;62039;50.000;9.064;2023-07-22T08:57:42;100247.72;;;24.29
73734;BMP280;62039;50.000;9.064;2023-07-22T09:00:11;100246.91;;;24.28
73734;BMP280;62039;50.000;9.064;2023-07-22T09:02:39;100245.31;;;24.27
73734;BMP280;62039;50.000;9.064;2023-07-22T09:05:07;100236.78;;;24.25
73734;BMP280;62039;50.000;9.064;2023-07-22T09:07:37;100243.16;;;24.24
73734;BMP280;62039;50.000;9.064;2023-07-22T09:10:05;100245.25;;;24.22
73734;BMP280;62039;50.000;9.064;2023-07-22T09:12:34;100236.16;;;24.18
73734;BMP280;62039;50.000;9.064;2023-07-22T09:15:01;100238.28;;;24.16
73734;BMP280;62039;50.000;9.064;2023-07-22T09:17:28;100235.59;;;24.16
73734;BMP280;62039;50.000;9.064;2023-07-22T09:19:55;100233.50;;;24.18
73734;BMP280;62039;50.000;9.064;2023-07-22T09:22:25;100235.97;;;24.24
73734;BMP280;62039;50.000;9.064;2023-07-22T09:25:12;100232.03;;;24.32
73734;BMP280;62039;50.000;9.064;2023-07-22T09:27:39;100231.06;;;24.43
73734;BMP280;62039;50.000;9.064;2023-07-22T09:30:20;100221.47;;;24.47
73734;BMP280;62039;50.000;9.064;2023-07-22T09:32:47;100224.19;;;24.52
73734;BMP280;62039;50.000;9.064;2023-07-22T09:35:14;100230.06;;;24.54
73734;BMP280;62039;50.000;9.064;2023-07-22T09:37:41;100223.41;;;24.57
73734;BMP280;62039;50.000;9.064;2023-07-22T09:40:18;100219.44;;;24.59
73734;BMP280;62039;50.000;9.064;2023-07-22T09:42:47;100224.25;;;24.62
73734;BMP280;62039;50.000;9.064;2023-07-22T09:45:15;100222.13;;;24.64
73734;BMP280;62039;50.000;9.064;2023-07-22T09:47:44;100212.81;;;24.67
73734;BMP280;62039;50.000;9.064;2023-07-22T09:50:13;100212.06;;;24.72
73734;BMP280;62039;50.000;9.064;2023-07-22T09:52:45;100212.91;;;24.77
73734;BMP280;62039;50.000;9.064;2023-07-22T09:55:12;100217.47;;;24.82
73734;BMP280;62039;50.000;9.064;2023-07-22T09:57:45;100213.78;;;24.88
73734;BMP280;62039;50.000;9.064;2023-07-22T10:00:13;100208.41;;;24.83
73734;BMP280;62039;50.000;9.064;2023-07-22T10:02:41;100215.84;;;24.76
73734;BMP280;62039;50.000;9.064;2023-07-22T10:05:12;100205.13;;;24.71
73734;BMP280;62039;50.000;9.064;2023-07-22T10:07:43;100207.00;;;24.70
73734;BMP280;62039;50.000;9.064;2023-07-22T10:10:11;100198.97;;;24.70
73734;BMP280;62039;50.000;9.064;2023-07-22T10:12:39;100206.19;;;24.70
73734;BMP280;62039;50.000;9.064;2023-07-22T10:15:10;100207.25;;;24.74
73734;BMP280;62039;50.000;9.064;2023-07-22T10:17:37;100192.91;;;24.80
73734;BMP280;62039;50.000;9.064;2023-07-22T10:20:06;100193.19;;;24.88
73734;BMP280;62039;50.000;9.064;2023-07-22T10:22:35;100188.19;;;24.97
73734;BMP280;62039;50.000;9.064;2023-07-22T10:25:04;100187.16;;;25.03
73734;BMP280;62039;50.000;9.064;2023-07-22T10:27:32;100198.66;;;25.09
73734;BMP280;62039;50.000;9.064;2023-07-22T10:29:59;100185.31;;;25.09
73734;BMP280;62039;50.000;9.064;2023-07-22T10:32:34;100197.03;;;25.08
73734;BMP280;62039;50.000;9.064;2023-07-22T10:35:02;100187.13;;;24.98
73734;BMP280;62039;50.000;9.064;2023-07-22T10:37:30;100175.06;;;24.90
73734;BMP280;62039;50.000;9.064;2023-07-22T10:39:59;100179.03;;;24.83
73734;BMP280;62039;50.000;9.064;2023-07-22T10:42:26;100182.97;;;24.75
73734;BMP280;62039;50.000;9.064;2023-07-22T10:44:53;100178.91;;;24.68
73734;BMP280;62039;50.000;9.064;2023-07-22T10:47:34;100180.97;;;24.60
73734;BMP280;62039;50.000;9.064;2023-07-22T10:50:08;100177.47;;;24.55
73734;BMP280;62039;50.000;9.064;2023-07-22T10:52:40;100180.91;;;24.50
73734;BMP280;62039;50.000;9.064;2023-07-22T10:55:15;100178.25;;;24.50
73734;BMP280;62039;50.000;9.064;2023-07-22T10:57:48;100181.41;;;24.47
73734;BMP280;62039;50.000;9.064;2023-07-22T11:00:18;100180.59;;;24.47
73734;BMP280;62039;50.000;9.064;2023-07-22T11:03:11;100184.06;;;24.42
73734;BMP280;62039;50.000;9.064;2023-07-22T11:05:48;100183.25;;;24.42
73734;BMP280;62039;50.000;9.064;2023-07-22T11:08:15;100180.31;;;24.38
73734;BMP280;62039;50.000;9.064;2023-07-22T11:10:52;100176.03;;;24.37
73734;BMP280;62039;50.000;9.064;2023-07-22T11:13:26;100179.19;;;24.34
73734;BMP280;62039;50.000;9.064;2023-07-22T11:15:57;100174.06;;;24.28
73734;BMP280;62039;50.000;9.064;2023-07-22T11:18:38;100172.16;;;24.23
73734;BMP280;62039;50.000;9.064;2023-07-22T11:21:09;100161.25;;;24.24
73734;BMP280;62039;50.000;9.064;2023-07-22T11:23:36;100163.66;;;24.26
73734;BMP280;62039;50.000;9.064;2023-07-22T11:26:04;100168.47;;;24.29
73734;BMP280;62039;50.000;9.064;2023-07-22T11:28:31;100153.31;;;24.35
73734;BMP280;62039;50.000;9.064;2023-07-22T11:30:58;100148.56;;;24.42
73734;BMP280;62039;50.000;9.064;2023-07-22T11:33:25;100140.31;;;24.48
73734;BMP280;62039;50.000;9.064;2023-07-22T11:35:54;100150.50;;;24.51
73734;BMP280;62039;50.000;9.064;2023-07-22T11:38:21;100131.25;;;24.49
73734;BMP280;62039;50.000;9.064;2023-07-22T11:40:51;100138.22;;;24.50
73734;BMP280;62039;50.000;9.064;2023-07-22T11:43:20;100134.75;;;24.55
73734;BMP280;62039;50.000;9.064;2023-07-22T11:45:47;100137.72;;;24.58
73734;BMP280;62039;50.000;9.064;2023-07-22T11:48:14;100134.00;;;24.59
73734;BMP280;62039;50.000;9.064;2023-07-22T11:50:41;100125.72;;;24.61
73734;BMP280;62039;50.000;9.064;2023-07-22T11:53:11;100117.19;;;24.64
73734;BMP280;62039;50.000;9.064;2023-07-22T11:55:38;100123.09;;;24.66
73734;BMP280;62039;50.000;9.064;2023-07-22T11:58:08;100114.84;;;24.68
73734;BMP280;62039;50.000;9.064;2023-07-22T12:00:35;100111.66;;;24.71
73734;BMP280;62039;50.000;9.064;2023-07-22T12:03:05;100104.47;;;24.76
73734;BMP280;62039;50.000;9.064;2023-07-22T12:05:35;100103.44;;;24.82
73734;BMP280;62039;50.000;9.064;2023-07-22T12:08:03;100097.84;;;24.89
73734;BMP280;62039;50.000;9.064;2023-07-22T12:10:32;100104.31;;;24.93
73734;BMP280;62039;50.000;9.064;2023-07-22T12:13:01;100100.53;;;24.94
73734;BMP280;62039;50.000;9.064;2023-07-22T12:15:28;100111.75;;;24.91
73734;BMP280;62039;50.000;9.064;2023-07-22T12:17:56;100102.13;;;24.90
73734;BMP280;62039;50.000;9.064;2023-07-22T12:20:24;100104.25;;;24.88
73734;BMP280;62039;50.000;9.064;2023-07-22T12:22:51;100093.84;;;24.86
73734;BMP280;62039;50.000;9.064;2023-07-22T12:25:18;100099.47;;;24.90
73734;BMP280;62039;50.000;9.064;2023-07-22T12:27:48;100094.94;;;24.95
73734;BMP280;62039;50.000;9.064;2023-07-22T12:30:15;100099.53;;;25.00
73734;BMP280;62039;50.000;9.064;2023-07-22T12:32:46;100089.09;;;25.03
73734;BMP280;62039;50.000;9.064;2023-07-22T12:35:13;100080.28;;;25.08
73734;BMP280;62039;50.000;9.064;2023-07-22T12:37:41;100081.38;;;25.12
73734;BMP280;62039;50.000;9.064;2023-07-22T12:40:10;100074.19;;;25.18
73734;BMP280;62039;50.000;9.064;2023-07-22T12:42:37;100077.97;;;25.22
73734;BMP280;62039;50.000;9.064;2023-07-22T12:45:07;100079.88;;;25.26
73734;BMP280;62039;50.000;9.064;2023-07-22T12:47:35;100076.66;;;25.29
73734;BMP280;62039;50.000;9.064;2023-07-22T12:50:02;100075.59;;;25.30
73734;BMP280;62039;50.000;9.064;2023-07-22T12:52:29;100076.94;;;25.33
73734;BMP280;62039;50.000;9.064;2023-07-22T12:54:56;100070.25;;;25.35
73734;BMP280;62039;50.000;9.064;2023-07-22T12:57:23;100071.34;;;25.39
73734;BMP280;62039;50.000;9.064;2023-07-22T12:59:50;100067.59;;;25.40
73734;BMP280;62039;50.000;9.064;2023-07-22T13:02:20;100065.44;;;25.42
73734;BMP280;62039;50.000;9.064;2023-07-22T13:04:47;100059.59;;;25.46
73734;BMP280;62039;50.000;9.064;2023-07-22T13:07:14;100063.56;;;25.48
73734;BMP280;62039;50.000;9.064;2023-07-22T13:09:41;100056.91;;;25.51
73734;BMP280;62039;50.000;9.064;2023-07-22T13:12:08;100055.28;;;25.50
73734;BMP280;62039;50.000;9.064;2023-07-22T13:14:36;100056.66;;;25.47
73734;BMP280;62039;50.000;9.064;2023-07-22T13:17:06;100054.50;;;25.49
73734;BMP280;62039;50.000;9.064;2023-07-22T13:19:36;100064.94;;;25.51
73734;BMP280;62039;50.000;9.064;2023-07-22T13:22:04;100057.97;;;25.50
73734;BMP280;62039;50.000;9.064;2023-07-22T13:24:31;100046.72;;;25.48
73734;BMP280;62039;50.000;9.064;2023-07-22T13:26:58;100040.59;;;25.47
73734;BMP280;62039;50.000;9.064;2023-07-22T13:29:25;100043.00;;;25.49
73734;BMP280;62039;50.000;9.064;2023-07-22T13:31:52;100047.81;;;25.52
73734;BMP280;62039;50.000;9.064;2023-07-22T13:34:19;100035.00;;;25.54
73734;BMP280;62039;50.000;9.064;2023-07-22T13:36:48;100048.88;;;25.56
73734;BMP280;62039;50.000;9.064;2023-07-22T13:39:15;100047.28;;;25.60
73734;BMP280;62039;50.000;9.064;2023-07-22T13:41:42;100035.00;;;25.64
73734;BMP280;62039;50.000;9.064;2023-07-22T13:44:09;100039.81;;;25.67
73734;BMP280;62039;50.000;9.064;2023-07-22T13:46:36;100043.00;;;25.69
73734;BMP280;62039;50.000;9.064;2023-07-22T13:49:03;100026.47;;;25.72
73734;BMP280;62039;50.000;9.064;2023-07-22T13:51:30;100026.47;;;25.72
73734;BMP280;62039;50.000;9.064;2023-07-22T13:54:00;100022.72;;;25.73
73734;BMP280;62039;50.000;9.064;2023-07-22T13:56:27;100015.22;;;25.75
73734;BMP280;62039;50.000;9.064;2023-07-22T13:58:54;100026.47;;;25.77
73734;BMP280;62039;50.000;9.064;2023-07-22T14:01:22;100021.91;;;25.77
73734;BMP280;62039;50.000;9.064;2023-07-22T14:03:49;100022.47;;;25.79